Grove City, Minnesota
Current Conditions -  °F | °C
As of 8:13 PM on Thursday 18 Dec 2014 (Local Time) from KLJF Reporting Station
Overcast Overcast  
Wind Chill: 11°   Ceiling: 7500
Heat Index: 19°   Visibility: 10mi
Dew Point: 18°   Wind: 6mph
Humidity: 93%   Direction: 130°SE
Pressure: 30.24"   Gusts: NA
Location:  45.15°N, 94.68°W
Report Text: KLJF 190213Z AUTO 13005KT 10SM OVC075 M07/M08 A3024 RMK AO2
Loading
Personal Weather Stations






























Interactive Weather Map New forecast layout! Learn more

10-Day Weather Forecast

Advertisements
Track Severe Weather on mobile